Airfield :
LOGIN :

Register | Disclaimer

   EN    FR    IT 

 










Legend :    VFR   Marginal VFR   IFR   Intensive IFR   Very Intensive IFR
Visi :
Ceiling :
>= 8 km
>= 3000ft
5 to 8 km
1000 to 3000 ft
1500m to 5 km
500 to 1000 ft
800 to 1500m
200 to 500 ft
< 800m
< 200 ft
Symbols :   Thunderstorms  Fog  Heavy snow  Heavy precipitations  Wind > 20 kt
SIGMETs :     Misc.  Thunderstorms  Icing  Turbulence  Mountain Waves  Volcanic Ashes






- Airport Elevation : 370 ft


EBBE - Beauvechain AB

CURRENT METAR :
  • 291055Z 24011KT 9999 SCT013 BKN020 BKN036 12/09 Q1017 GRN GRN BECMG WHT

EXPIRED METARs :
  • 291025Z 24011KT 9999 SCT013 BKN018 BKN027 12/09 Q1017 GRN GRN BECMG WHT
  • 290955Z 24011KT 9999 SCT012 BKN016 BKN042 11/09 Q1017 GRN GRN BECMG WHT
  • 290953Z 24012KT 9999 SCT012 BKN016 BKN042 11/09 Q1017 GRN GRN BECMG WHT
  • 290925Z 23011KT 9999 SCT010 BKN013 BKN035 11/09 Q1017 GRN WHT TEMPO GRN
  • 290855Z 23012KT 9999 SCT010 BKN013 BKN035 10/09 Q1017 GRN WHT TEMPO GRN
  • 290833Z 23010KT 9999 -RA FEW010 SCT013 BKN035 10/08 Q1016 GRN WHT TEMPO GRN
  • 290825Z 23010KT 9999 FEW011 SCT036 BKN043 10/08 Q1016 BLU BLU TEMPO GRN

TAF COR TAF EBBE
Valid from the 29 at 10:00 until the 29 at 19:00 UTC


290841Z 2910/2919 23013G20KT 9999 FEW012 BKN036 OVC045
TEMPO 2910/2919 24020G30KT 7000 -RA SCT013 BKN028 OVC033
BECMG 2918/2919 SCT020 BKN025 OVC035



MET'MAP, your aeronautical weather chart ! - Copyright ORBIFLY December 2007 - Disclaimer

ORBIFLY MET'MAP TEAM :

Programming & Development : Alexandra Zaïnal
Concept & original design : Baudouin d'Aumeries
Assistance for programming : Marc-Olivier Méhu
Technical & hardware support : Manuel Goepfert

Contact : metmap@orbifly.com




SOURCES & CREDITS :

   NOAA